sensor_id;sensor_type;location;lat;lon;timestamp;temperature;humidity
42245;DHT22;27912;51.828;5.688;2024-02-26T00:01:54;5.50;99.90
42245;DHT22;27912;51.828;5.688;2024-02-26T00:04:19;5.50;99.90
42245;DHT22;27912;51.828;5.688;2024-02-26T00:06:47;5.50;99.90
42245;DHT22;27912;51.828;5.688;2024-02-26T00:09:13;5.50;99.90
42245;DHT22;27912;51.828;5.688;2024-02-26T00:11:39;5.50;99.90
42245;DHT22;27912;51.828;5.688;2024-02-26T00:14:05;5.50;99.90
42245;DHT22;27912;51.828;5.688;2024-02-26T00:16:30;5.50;99.90
42245;DHT22;27912;51.828;5.688;2024-02-26T00:18:56;5.50;99.90
42245;DHT22;27912;51.828;5.688;2024-02-26T00:21:21;5.40;99.90
42245;DHT22;27912;51.828;5.688;2024-02-26T00:23:49;5.50;99.90
42245;DHT22;27912;51.828;5.688;2024-02-26T00:26:15;5.50;99.90
42245;DHT22;27912;51.828;5.688;2024-02-26T00:28:41;5.50;99.90
42245;DHT22;27912;51.828;5.688;2024-02-26T00:31:17;5.50;99.90
42245;DHT22;27912;51.828;5.688;2024-02-26T00:33:47;5.50;99.90
42245;DHT22;27912;51.828;5.688;2024-02-26T00:36:13;5.50;99.90
42245;DHT22;27912;51.828;5.688;2024-02-26T00:38:38;5.50;99.90
42245;DHT22;27912;51.828;5.688;2024-02-26T00:41:05;5.60;99.90
42245;DHT22;27912;51.828;5.688;2024-02-26T00:43:31;5.50;99.90
42245;DHT22;27912;51.828;5.688;2024-02-26T00:45:57;5.60;99.90
42245;DHT22;27912;51.828;5.688;2024-02-26T00:48:22;5.60;99.90
42245;DHT22;27912;51.828;5.688;2024-02-26T00:50:51;5.60;99.90
42245;DHT22;27912;51.828;5.688;2024-02-26T00:53:17;5.60;99.90
42245;DHT22;27912;51.828;5.688;2024-02-26T00:55:42;5.60;99.90
42245;DHT22;27912;51.828;5.688;2024-02-26T00:58:08;5.60;99.90
42245;DHT22;27912;51.828;5.688;2024-02-26T01:00:34;5.60;99.90
42245;DHT22;27912;51.828;5.688;2024-02-26T01:03:00;5.60;99.90
42245;DHT22;27912;51.828;5.688;2024-02-26T01:05:26;5.70;99.90
42245;DHT22;27912;51.828;5.688;2024-02-26T01:07:51;5.70;99.90
42245;DHT22;27912;51.828;5.688;2024-02-26T01:10:17;5.70;99.90
42245;DHT22;27912;51.828;5.688;2024-02-26T01:12:43;5.70;99.90
42245;DHT22;27912;51.828;5.688;2024-02-26T01:15:09;5.70;99.90
42245;DHT22;27912;51.828;5.688;2024-02-26T01:17:34;5.70;99.90
42245;DHT22;27912;51.828;5.688;2024-02-26T01:20:00;5.70;99.90
42245;DHT22;27912;51.828;5.688;2024-02-26T01:22:25;5.80;99.90
42245;DHT22;27912;51.828;5.688;2024-02-26T01:24:51;5.80;99.90
42245;DHT22;27912;51.828;5.688;2024-02-26T01:27:17;5.80;99.90
42245;DHT22;27912;51.828;5.688;2024-02-26T01:29:42;5.80;99.90
42245;DHT22;27912;51.828;5.688;2024-02-26T01:32:08;5.80;99.90
42245;DHT22;27912;51.828;5.688;2024-02-26T01:34:33;5.90;99.90
42245;DHT22;27912;51.828;5.688;2024-02-26T01:37:00;5.90;99.90
42245;DHT22;27912;51.828;5.688;2024-02-26T01:39:26;5.80;99.90
42245;DHT22;27912;51.828;5.688;2024-02-26T01:41:53;5.90;99.90
42245;DHT22;27912;51.828;5.688;2024-02-26T01:44:18;5.90;99.90
42245;DHT22;27912;51.828;5.688;2024-02-26T01:46:44;5.90;99.90
42245;DHT22;27912;51.828;5.688;2024-02-26T01:49:11;5.90;99.90
42245;DHT22;27912;51.828;5.688;2024-02-26T01:51:38;5.90;99.90
42245;DHT22;27912;51.828;5.688;2024-02-26T01:54:05;5.90;99.90
42245;DHT22;27912;51.828;5.688;2024-02-26T01:56:34;5.90;99.90
42245;DHT22;27912;51.828;5.688;2024-02-26T01:59:01;5.90;99.90
42245;DHT22;27912;51.828;5.688;2024-02-26T02:01:29;5.90;99.90
42245;DHT22;27912;51.828;5.688;2024-02-26T02:03:57;5.90;99.90
42245;DHT22;27912;51.828;5.688;2024-02-26T02:06:23;5.90;99.90
42245;DHT22;27912;51.828;5.688;2024-02-26T02:08:49;5.90;99.90
42245;DHT22;27912;51.828;5.688;2024-02-26T02:11:14;5.90;99.90
42245;DHT22;27912;51.828;5.688;2024-02-26T02:13:40;5.90;99.90
42245;DHT22;27912;51.828;5.688;2024-02-26T02:16:06;5.90;99.90
42245;DHT22;27912;51.828;5.688;2024-02-26T02:18:33;5.90;99.90
42245;DHT22;27912;51.828;5.688;2024-02-26T02:21:00;5.90;99.90
42245;DHT22;27912;51.828;5.688;2024-02-26T02:23:26;5.90;99.90
42245;DHT22;27912;51.828;5.688;2024-02-26T02:25:52;5.90;99.90
42245;DHT22;27912;51.828;5.688;2024-02-26T02:28:18;5.90;99.90
42245;DHT22;27912;51.828;5.688;2024-02-26T02:30:44;5.90;99.90
42245;DHT22;27912;51.828;5.688;2024-02-26T02:33:10;5.80;99.90
42245;DHT22;27912;51.828;5.688;2024-02-26T02:35:37;5.90;99.90
42245;DHT22;27912;51.828;5.688;2024-02-26T02:38:03;5.80;99.90
42245;DHT22;27912;51.828;5.688;2024-02-26T02:40:29;5.80;99.90
42245;DHT22;27912;51.828;5.688;2024-02-26T02:42:54;5.90;99.90
42245;DHT22;27912;51.828;5.688;2024-02-26T02:45:20;5.80;99.90
42245;DHT22;27912;51.828;5.688;2024-02-26T02:47:46;5.80;99.90
42245;DHT22;27912;51.828;5.688;2024-02-26T02:50:11;5.80;99.90
42245;DHT22;27912;51.828;5.688;2024-02-26T02:52:37;5.80;99.90
42245;DHT22;27912;51.828;5.688;2024-02-26T02:55:02;5.80;99.90
42245;DHT22;27912;51.828;5.688;2024-02-26T02:57:30;5.80;99.90
42245;DHT22;27912;51.828;5.688;2024-02-26T02:59:55;5.80;99.90
42245;DHT22;27912;51.828;5.688;2024-02-26T03:02:21;5.80;99.90
42245;DHT22;27912;51.828;5.688;2024-02-26T03:04:47;5.70;99.90
42245;DHT22;27912;51.828;5.688;2024-02-26T03:07:12;5.70;99.90
42245;DHT22;27912;51.828;5.688;2024-02-26T03:09:38;5.70;99.90
42245;DHT22;27912;51.828;5.688;2024-02-26T03:12:04;5.70;99.90
42245;DHT22;27912;51.828;5.688;2024-02-26T03:14:29;5.70;99.90
42245;DHT22;27912;51.828;5.688;2024-02-26T03:16:55;5.70;99.90
42245;DHT22;27912;51.828;5.688;2024-02-26T03:19:21;5.60;99.90
42245;DHT22;27912;51.828;5.688;2024-02-26T03:21:47;5.60;99.90
42245;DHT22;27912;51.828;5.688;2024-02-26T03:24:12;5.60;99.90
42245;DHT22;27912;51.828;5.688;2024-02-26T03:26:38;5.60;99.90
42245;DHT22;27912;51.828;5.688;2024-02-26T03:29:04;5.60;99.90
42245;DHT22;27912;51.828;5.688;2024-02-26T03:31:30;5.60;99.90
42245;DHT22;27912;51.828;5.688;2024-02-26T03:33:56;5.50;99.90
42245;DHT22;27912;51.828;5.688;2024-02-26T03:36:21;5.60;99.90
42245;DHT22;27912;51.828;5.688;2024-02-26T03:38:50;5.50;99.90
42245;DHT22;27912;51.828;5.688;2024-02-26T03:41:16;5.50;99.90
42245;DHT22;27912;51.828;5.688;2024-02-26T03:43:41;5.50;99.90
42245;DHT22;27912;51.828;5.688;2024-02-26T03:46:07;5.50;99.90
42245;DHT22;27912;51.828;5.688;2024-02-26T03:48:34;5.50;99.90
42245;DHT22;27912;51.828;5.688;2024-02-26T03:51:00;5.50;99.90
42245;DHT22;27912;51.828;5.688;2024-02-26T03:53:25;5.40;99.90
42245;DHT22;27912;51.828;5.688;2024-02-26T03:55:51;5.50;99.90
42245;DHT22;27912;51.828;5.688;2024-02-26T03:58:18;5.40;99.90
42245;DHT22;27912;51.828;5.688;2024-02-26T04:00:43;5.40;99.90
42245;DHT22;27912;51.828;5.688;2024-02-26T04:03:09;5.50;99.90
42245;DHT22;27912;51.828;5.688;2024-02-26T04:05:35;5.50;99.90
42245;DHT22;27912;51.828;5.688;2024-02-26T04:08:01;5.40;99.90
42245;DHT22;27912;51.828;5.688;2024-02-26T04:10:26;5.50;99.90
42245;DHT22;27912;51.828;5.688;2024-02-26T04:12:52;5.40;99.90
42245;DHT22;27912;51.828;5.688;2024-02-26T04:15:17;5.50;99.90
42245;DHT22;27912;51.828;5.688;2024-02-26T04:17:43;5.50;99.90
42245;DHT22;27912;51.828;5.688;2024-02-26T04:20:13;5.40;99.90
42245;DHT22;27912;51.828;5.688;2024-02-26T04:22:39;5.50;99.90
42245;DHT22;27912;51.828;5.688;2024-02-26T04:25:05;5.40;99.90
42245;DHT22;27912;51.828;5.688;2024-02-26T04:27:30;5.40;99.90
42245;DHT22;27912;51.828;5.688;2024-02-26T04:29:56;5.40;99.90
42245;DHT22;27912;51.828;5.688;2024-02-26T04:32:21;5.50;99.90
42245;DHT22;27912;51.828;5.688;2024-02-26T04:34:47;5.40;99.90
42245;DHT22;27912;51.828;5.688;2024-02-26T04:37:13;5.40;99.90
42245;DHT22;27912;51.828;5.688;2024-02-26T04:39:39;5.50;99.90
42245;DHT22;27912;51.828;5.688;2024-02-26T04:42:04;5.50;99.90
42245;DHT22;27912;51.828;5.688;2024-02-26T04:44:30;5.50;99.90
42245;DHT22;27912;51.828;5.688;2024-02-26T04:46:56;5.50;99.90
42245;DHT22;27912;51.828;5.688;2024-02-26T04:49:21;5.50;99.90
42245;DHT22;27912;51.828;5.688;2024-02-26T04:51:47;5.50;99.90
42245;DHT22;27912;51.828;5.688;2024-02-26T04:54:13;5.50;99.90
42245;DHT22;27912;51.828;5.688;2024-02-26T04:56:39;5.50;99.90
42245;DHT22;27912;51.828;5.688;2024-02-26T04:59:05;5.50;99.90
42245;DHT22;27912;51.828;5.688;2024-02-26T05:01:30;5.50;99.90
42245;DHT22;27912;51.828;5.688;2024-02-26T05:03:56;5.50;99.90
42245;DHT22;27912;51.828;5.688;2024-02-26T05:06:21;5.40;99.90
42245;DHT22;27912;51.828;5.688;2024-02-26T05:08:47;5.40;99.90
42245;DHT22;27912;51.828;5.688;2024-02-26T05:11:12;5.40;99.90
42245;DHT22;27912;51.828;5.688;2024-02-26T05:13:38;5.40;99.90
42245;DHT22;27912;51.828;5.688;2024-02-26T05:16:04;5.40;99.90
42245;DHT22;27912;51.828;5.688;2024-02-26T05:18:29;5.40;99.90
42245;DHT22;27912;51.828;5.688;2024-02-26T05:20:55;5.30;99.90
42245;DHT22;27912;51.828;5.688;2024-02-26T05:23:20;5.30;99.90
42245;DHT22;27912;51.828;5.688;2024-02-26T05:25:46;5.30;99.90
42245;DHT22;27912;51.828;5.688;2024-02-26T05:28:13;5.30;99.90
42245;DHT22;27912;51.828;5.688;2024-02-26T05:30:41;5.30;99.90
42245;DHT22;27912;51.828;5.688;2024-02-26T05:33:07;5.30;99.90
42245;DHT22;27912;51.828;5.688;2024-02-26T05:35:32;5.30;99.90
42245;DHT22;27912;51.828;5.688;2024-02-26T05:37:58;5.40;99.90
42245;DHT22;27912;51.828;5.688;2024-02-26T05:40:23;5.30;99.90
42245;DHT22;27912;51.828;5.688;2024-02-26T05:42:49;5.30;99.90
42245;DHT22;27912;51.828;5.688;2024-02-26T05:45:14;5.30;99.90
42245;DHT22;27912;51.828;5.688;2024-02-26T05:47:40;5.30;99.90
42245;DHT22;27912;51.828;5.688;2024-02-26T05:50:12;5.30;99.90
42245;DHT22;27912;51.828;5.688;2024-02-26T05:52:38;5.30;99.90
42245;DHT22;27912;51.828;5.688;2024-02-26T05:55:04;5.30;99.90
42245;DHT22;27912;51.828;5.688;2024-02-26T05:57:31;5.30;99.90
42245;DHT22;27912;51.828;5.688;2024-02-26T05:59:57;5.40;99.90
42245;DHT22;27912;51.828;5.688;2024-02-26T06:02:26;5.30;99.90
42245;DHT22;27912;51.828;5.688;2024-02-26T06:04:51;5.40;99.90
42245;DHT22;27912;51.828;5.688;2024-02-26T06:07:17;5.30;99.90
42245;DHT22;27912;51.828;5.688;2024-02-26T06:09:42;5.40;99.90
42245;DHT22;27912;51.828;5.688;2024-02-26T06:12:08;5.30;99.90
42245;DHT22;27912;51.828;5.688;2024-02-26T06:14:34;5.30;99.90
42245;DHT22;27912;51.828;5.688;2024-02-26T06:16:59;5.30;99.90
42245;DHT22;27912;51.828;5.688;2024-02-26T06:19:25;5.30;99.90
42245;DHT22;27912;51.828;5.688;2024-02-26T06:21:50;5.30;99.90
42245;DHT22;27912;51.828;5.688;2024-02-26T06:24:16;5.30;99.90
42245;DHT22;27912;51.828;5.688;2024-02-26T06:26:42;5.30;99.90
42245;DHT22;27912;51.828;5.688;2024-02-26T06:29:07;5.30;99.90
42245;DHT22;27912;51.828;5.688;2024-02-26T06:31:33;5.30;99.90
42245;DHT22;27912;51.828;5.688;2024-02-26T06:33:58;5.30;99.90
42245;DHT22;27912;51.828;5.688;2024-02-26T06:36:24;5.30;99.90
42245;DHT22;27912;51.828;5.688;2024-02-26T06:38:51;5.20;99.90
42245;DHT22;27912;51.828;5.688;2024-02-26T06:41:19;5.20;99.90
42245;DHT22;27912;51.828;5.688;2024-02-26T06:43:44;5.20;99.90
42245;DHT22;27912;51.828;5.688;2024-02-26T06:46:10;5.20;99.90
42245;DHT22;27912;51.828;5.688;2024-02-26T06:48:36;5.20;99.90
42245;DHT22;27912;51.828;5.688;2024-02-26T06:51:02;5.20;99.90
42245;DHT22;27912;51.828;5.688;2024-02-26T06:53:28;5.20;99.90
42245;DHT22;27912;51.828;5.688;2024-02-26T06:55:53;5.20;99.90
42245;DHT22;27912;51.828;5.688;2024-02-26T06:58:19;5.20;99.90
42245;DHT22;27912;51.828;5.688;2024-02-26T07:00:52;5.20;99.90
42245;DHT22;27912;51.828;5.688;2024-02-26T07:03:21;5.20;99.90
42245;DHT22;27912;51.828;5.688;2024-02-26T07:05:48;5.20;99.90
42245;DHT22;27912;51.828;5.688;2024-02-26T07:08:14;5.20;99.90
42245;DHT22;27912;51.828;5.688;2024-02-26T07:10:39;5.20;99.90
42245;DHT22;27912;51.828;5.688;2024-02-26T07:13:05;5.20;99.90
42245;DHT22;27912;51.828;5.688;2024-02-26T07:15:31;5.20;99.90
42245;DHT22;27912;51.828;5.688;2024-02-26T07:17:57;5.20;99.90
42245;DHT22;27912;51.828;5.688;2024-02-26T07:20:28;5.20;99.90
42245;DHT22;27912;51.828;5.688;2024-02-26T07:22:54;5.20;99.90
42245;DHT22;27912;51.828;5.688;2024-02-26T07:25:20;5.20;99.90
42245;DHT22;27912;51.828;5.688;2024-02-26T07:27:46;5.20;99.90
42245;DHT22;27912;51.828;5.688;2024-02-26T07:30:12;5.20;99.90
42245;DHT22;27912;51.828;5.688;2024-02-26T07:32:38;5.20;99.90
42245;DHT22;27912;51.828;5.688;2024-02-26T07:35:04;5.20;99.90
42245;DHT22;27912;51.828;5.688;2024-02-26T07:37:30;5.20;99.90
42245;DHT22;27912;51.828;5.688;2024-02-26T07:39:56;5.20;99.90
42245;DHT22;27912;51.828;5.688;2024-02-26T07:42:21;5.20;99.90
42245;DHT22;27912;51.828;5.688;2024-02-26T07:44:47;5.20;99.90
42245;DHT22;27912;51.828;5.688;2024-02-26T07:47:13;5.20;99.90
42245;DHT22;27912;51.828;5.688;2024-02-26T07:49:39;5.10;99.90
42245;DHT22;27912;51.828;5.688;2024-02-26T07:52:05;5.20;99.90
42245;DHT22;27912;51.828;5.688;2024-02-26T07:54:31;5.10;99.90
42245;DHT22;27912;51.828;5.688;2024-02-26T07:56:56;5.20;99.90
42245;DHT22;27912;51.828;5.688;2024-02-26T07:59:22;5.20;99.90
42245;DHT22;27912;51.828;5.688;2024-02-26T08:01:51;5.20;99.90
42245;DHT22;27912;51.828;5.688;2024-02-26T08:04:17;5.20;99.90
42245;DHT22;27912;51.828;5.688;2024-02-26T08:06:42;5.20;99.90
42245;DHT22;27912;51.828;5.688;2024-02-26T08:09:08;5.20;99.90
42245;DHT22;27912;51.828;5.688;2024-02-26T08:11:34;5.20;99.90
42245;DHT22;27912;51.828;5.688;2024-02-26T08:14:00;5.20;99.90
42245;DHT22;27912;51.828;5.688;2024-02-26T08:16:26;5.20;99.90
42245;DHT22;27912;51.828;5.688;2024-02-26T08:18:51;5.20;99.90
42245;DHT22;27912;51.828;5.688;2024-02-26T08:21:17;5.20;99.90
42245;DHT22;27912;51.828;5.688;2024-02-26T08:23:43;5.20;99.90
42245;DHT22;27912;51.828;5.688;2024-02-26T08:26:09;5.20;99.90
42245;DHT22;27912;51.828;5.688;2024-02-26T08:28:39;5.20;99.90
42245;DHT22;27912;51.828;5.688;2024-02-26T08:31:05;5.20;99.90
42245;DHT22;27912;51.828;5.688;2024-02-26T08:33:31;5.20;99.90
42245;DHT22;27912;51.828;5.688;2024-02-26T08:35:57;5.20;99.90
42245;DHT22;27912;51.828;5.688;2024-02-26T08:38:24;5.30;99.90
42245;DHT22;27912;51.828;5.688;2024-02-26T08:40:50;5.30;99.90
42245;DHT22;27912;51.828;5.688;2024-02-26T08:43:16;5.40;99.90
42245;DHT22;27912;51.828;5.688;2024-02-26T08:45:41;5.40;99.90
42245;DHT22;27912;51.828;5.688;2024-02-26T08:48:07;5.40;99.90
42245;DHT22;27912;51.828;5.688;2024-02-26T08:50:33;5.40;99.90
42245;DHT22;27912;51.828;5.688;2024-02-26T08:52:58;5.40;99.90
42245;DHT22;27912;51.828;5.688;2024-02-26T08:55:26;5.40;99.90
42245;DHT22;27912;51.828;5.688;2024-02-26T08:57:52;5.50;99.90
42245;DHT22;27912;51.828;5.688;2024-02-26T09:00:18;5.50;99.90
42245;DHT22;27912;51.828;5.688;2024-02-26T09:02:47;5.50;99.90
42245;DHT22;27912;51.828;5.688;2024-02-26T09:05:14;5.50;99.90
42245;DHT22;27912;51.828;5.688;2024-02-26T09:07:43;5.40;99.90
42245;DHT22;27912;51.828;5.688;2024-02-26T09:10:09;5.50;99.90
42245;DHT22;27912;51.828;5.688;2024-02-26T09:12:39;5.40;99.90
42245;DHT22;27912;51.828;5.688;2024-02-26T09:15:06;5.40;99.90
42245;DHT22;27912;51.828;5.688;2024-02-26T09:17:32;5.40;99.90
42245;DHT22;27912;51.828;5.688;2024-02-26T09:19:58;5.40;99.90
42245;DHT22;27912;51.828;5.688;2024-02-26T09:22:24;5.40;99.90
42245;DHT22;27912;51.828;5.688;2024-02-26T09:24:49;5.40;99.90
42245;DHT22;27912;51.828;5.688;2024-02-26T09:27:16;5.40;99.90
42245;DHT22;27912;51.828;5.688;2024-02-26T09:29:42;5.40;99.90
42245;DHT22;27912;51.828;5.688;2024-02-26T09:32:08;5.40;99.90
42245;DHT22;27912;51.828;5.688;2024-02-26T09:34:33;5.40;99.90
42245;DHT22;27912;51.828;5.688;2024-02-26T09:36:59;5.40;99.90
42245;DHT22;27912;51.828;5.688;2024-02-26T09:39:26;5.50;99.90
42245;DHT22;27912;51.828;5.688;2024-02-26T09:41:53;5.40;99.90
42245;DHT22;27912;51.828;5.688;2024-02-26T09:44:20;5.50;99.90
42245;DHT22;27912;51.828;5.688;2024-02-26T09:46:48;5.50;99.90
42245;DHT22;27912;51.828;5.688;2024-02-26T09:49:15;5.50;99.90
42245;DHT22;27912;51.828;5.688;2024-02-26T09:51:41;5.50;99.90
42245;DHT22;27912;51.828;5.688;2024-02-26T09:54:09;5.50;99.90
42245;DHT22;27912;51.828;5.688;2024-02-26T09:56:38;5.50;99.90
42245;DHT22;27912;51.828;5.688;2024-02-26T09:59:06;5.50;99.90
42245;DHT22;27912;51.828;5.688;2024-02-26T10:01:33;5.50;99.90
42245;DHT22;27912;51.828;5.688;2024-02-26T10:04:01;5.50;99.90
42245;DHT22;27912;51.828;5.688;2024-02-26T10:06:27;5.50;99.90
42245;DHT22;27912;51.828;5.688;2024-02-26T10:08:54;5.50;99.90
42245;DHT22;27912;51.828;5.688;2024-02-26T10:11:20;5.50;99.90
42245;DHT22;27912;51.828;5.688;2024-02-26T10:13:47;5.60;99.90
42245;DHT22;27912;51.828;5.688;2024-02-26T10:16:13;5.60;99.90
42245;DHT22;27912;51.828;5.688;2024-02-26T10:18:49;5.60;99.90
42245;DHT22;27912;51.828;5.688;2024-02-26T10:21:22;5.60;99.90
42245;DHT22;27912;51.828;5.688;2024-02-26T10:23:48;5.60;99.90
42245;DHT22;27912;51.828;5.688;2024-02-26T10:26:15;5.60;99.90
42245;DHT22;27912;51.828;5.688;2024-02-26T10:28:45;5.60;99.90
42245;DHT22;27912;51.828;5.688;2024-02-26T10:31:11;5.70;99.90
42245;DHT22;27912;51.828;5.688;2024-02-26T10:33:38;5.70;99.90
42245;DHT22;27912;51.828;5.688;2024-02-26T10:36:07;5.70;99.90
42245;DHT22;27912;51.828;5.688;2024-02-26T10:38:34;5.80;99.90
42245;DHT22;27912;51.828;5.688;2024-02-26T10:41:02;5.80;99.90
42245;DHT22;27912;51.828;5.688;2024-02-26T10:43:28;5.80;99.90
42245;DHT22;27912;51.828;5.688;2024-02-26T10:45:57;5.90;99.90
42245;DHT22;27912;51.828;5.688;2024-02-26T10:48:23;6.00;99.90
42245;DHT22;27912;51.828;5.688;2024-02-26T10:50:49;6.00;99.90
42245;DHT22;27912;51.828;5.688;2024-02-26T10:53:29;6.00;99.90
42245;DHT22;27912;51.828;5.688;2024-02-26T10:55:58;6.00;99.90
42245;DHT22;27912;51.828;5.688;2024-02-26T10:58:26;6.10;99.90
42245;DHT22;27912;51.828;5.688;2024-02-26T11:00:52;6.10;99.90
42245;DHT22;27912;51.828;5.688;2024-02-26T11:03:20;6.10;99.90
42245;DHT22;27912;51.828;5.688;2024-02-26T11:05:49;6.10;99.90
42245;DHT22;27912;51.828;5.688;2024-02-26T11:08:21;6.10;99.90
42245;DHT22;27912;51.828;5.688;2024-02-26T11:10:48;6.10;99.90
42245;DHT22;27912;51.828;5.688;2024-02-26T11:13:17;6.00;99.90
42245;DHT22;27912;51.828;5.688;2024-02-26T11:15:46;6.00;99.90
42245;DHT22;27912;51.828;5.688;2024-02-26T11:18:14;6.00;99.90
42245;DHT22;27912;51.828;5.688;2024-02-26T11:20:40;6.00;99.90
42245;DHT22;27912;51.828;5.688;2024-02-26T11:23:08;6.00;99.90
42245;DHT22;27912;51.828;5.688;2024-02-26T11:25:35;6.00;99.90
42245;DHT22;27912;51.828;5.688;2024-02-26T11:28:04;5.90;99.90
42245;DHT22;27912;51.828;5.688;2024-02-26T11:30:33;5.90;99.90
42245;DHT22;27912;51.828;5.688;2024-02-26T11:33:00;5.90;99.90
42245;DHT22;27912;51.828;5.688;2024-02-26T11:35:26;5.90;99.90
42245;DHT22;27912;51.828;5.688;2024-02-26T11:37:54;5.90;99.90
42245;DHT22;27912;51.828;5.688;2024-02-26T11:40:25;5.90;99.90
42245;DHT22;27912;51.828;5.688;2024-02-26T11:42:51;5.90;99.90
42245;DHT22;27912;51.828;5.688;2024-02-26T11:48:20;5.80;99.90
42245;DHT22;27912;51.828;5.688;2024-02-26T11:50:47;5.80;99.90
42245;DHT22;27912;51.828;5.688;2024-02-26T11:53:24;5.80;99.90
42245;DHT22;27912;51.828;5.688;2024-02-26T11:56:22;5.80;99.90
42245;DHT22;27912;51.828;5.688;2024-02-26T11:58:53;5.80;99.90
42245;DHT22;27912;51.828;5.688;2024-02-26T12:04:22;5.80;99.90
42245;DHT22;27912;51.828;5.688;2024-02-26T12:06:52;5.80;99.90
42245;DHT22;27912;51.828;5.688;2024-02-26T12:09:38;5.90;99.90
42245;DHT22;27912;51.828;5.688;2024-02-26T12:12:05;5.90;99.90
42245;DHT22;27912;51.828;5.688;2024-02-26T12:14:57;5.80;99.90
42245;DHT22;27912;51.828;5.688;2024-02-26T12:17:24;5.90;99.90
42245;DHT22;27912;51.828;5.688;2024-02-26T12:19:51;5.80;99.90
42245;DHT22;27912;51.828;5.688;2024-02-26T12:22:19;5.80;99.90
42245;DHT22;27912;51.828;5.688;2024-02-26T12:24:45;5.90;99.90
42245;DHT22;27912;51.828;5.688;2024-02-26T12:27:10;5.80;99.90
42245;DHT22;27912;51.828;5.688;2024-02-26T12:29:36;5.90;99.90
42245;DHT22;27912;51.828;5.688;2024-02-26T12:32:03;5.80;99.90
42245;DHT22;27912;51.828;5.688;2024-02-26T12:34:29;5.90;99.90
42245;DHT22;27912;51.828;5.688;2024-02-26T12:36:55;5.80;99.90
42245;DHT22;27912;51.828;5.688;2024-02-26T12:39:21;5.80;99.90
42245;DHT22;27912;51.828;5.688;2024-02-26T12:41:47;5.80;99.90
42245;DHT22;27912;51.828;5.688;2024-02-26T12:44:24;5.80;99.90
42245;DHT22;27912;51.828;5.688;2024-02-26T12:46:55;5.80;99.90
42245;DHT22;27912;51.828;5.688;2024-02-26T12:49:25;5.80;99.90
42245;DHT22;27912;51.828;5.688;2024-02-26T12:51:51;5.80;99.90
42245;DHT22;27912;51.828;5.688;2024-02-26T12:54:16;5.90;99.90
42245;DHT22;27912;51.828;5.688;2024-02-26T12:56:42;5.80;99.90
42245;DHT22;27912;51.828;5.688;2024-02-26T12:59:08;5.90;99.90
42245;DHT22;27912;51.828;5.688;2024-02-26T13:01:34;5.90;99.90
42245;DHT22;27912;51.828;5.688;2024-02-26T13:03:59;5.90;99.90
42245;DHT22;27912;51.828;5.688;2024-02-26T13:06:32;5.90;99.90
42245;DHT22;27912;51.828;5.688;2024-02-26T13:09:00;5.90;99.90
42245;DHT22;27912;51.828;5.688;2024-02-26T13:11:28;6.00;99.90
42245;DHT22;27912;51.828;5.688;2024-02-26T13:13:54;6.00;99.90
42245;DHT22;27912;51.828;5.688;2024-02-26T13:16:23;5.90;99.90
42245;DHT22;27912;51.828;5.688;2024-02-26T13:18:50;5.90;99.90
42245;DHT22;27912;51.828;5.688;2024-02-26T13:21:16;5.90;99.90
42245;DHT22;27912;51.828;5.688;2024-02-26T13:23:45;5.90;99.90
42245;DHT22;27912;51.828;5.688;2024-02-26T13:26:13;5.90;99.90
42245;DHT22;27912;51.828;5.688;2024-02-26T13:28:40;5.90;99.90
42245;DHT22;27912;51.828;5.688;2024-02-26T13:31:05;6.00;99.90
42245;DHT22;27912;51.828;5.688;2024-02-26T13:33:33;5.90;99.90
42245;DHT22;27912;51.828;5.688;2024-02-26T13:36:00;6.00;99.90
42245;DHT22;27912;51.828;5.688;2024-02-26T13:38:26;6.00;99.90
42245;DHT22;27912;51.828;5.688;2024-02-26T13:40:52;6.00;99.90
42245;DHT22;27912;51.828;5.688;2024-02-26T13:43:18;6.00;99.90
42245;DHT22;27912;51.828;5.688;2024-02-26T13:45:45;6.00;99.90
42245;DHT22;27912;51.828;5.688;2024-02-26T13:48:12;6.00;99.90
42245;DHT22;27912;51.828;5.688;2024-02-26T13:50:39;6.00;99.90
42245;DHT22;27912;51.828;5.688;2024-02-26T13:53:04;6.00;99.90
42245;DHT22;27912;51.828;5.688;2024-02-26T13:55:31;6.00;99.90
42245;DHT22;27912;51.828;5.688;2024-02-26T13:57:58;6.00;99.90
42245;DHT22;27912;51.828;5.688;2024-02-26T14:00:24;5.90;99.90
42245;DHT22;27912;51.828;5.688;2024-02-26T14:02:51;5.90;99.90
42245;DHT22;27912;51.828;5.688;2024-02-26T14:05:16;5.90;99.90
42245;DHT22;27912;51.828;5.688;2024-02-26T14:07:42;5.90;99.90
42245;DHT22;27912;51.828;5.688;2024-02-26T14:10:08;5.90;99.90
42245;DHT22;27912;51.828;5.688;2024-02-26T14:12:35;5.90;99.90
42245;DHT22;27912;51.828;5.688;2024-02-26T14:15:01;6.00;99.90
42245;DHT22;27912;51.828;5.688;2024-02-26T14:17:30;6.00;99.90
42245;DHT22;27912;51.828;5.688;2024-02-26T14:19:55;6.00;99.90
42245;DHT22;27912;51.828;5.688;2024-02-26T14:22:21;6.10;99.90
42245;DHT22;27912;51.828;5.688;2024-02-26T14:24:47;6.00;99.90
42245;DHT22;27912;51.828;5.688;2024-02-26T14:27:13;6.00;99.90
42245;DHT22;27912;51.828;5.688;2024-02-26T14:29:43;6.00;99.90
42245;DHT22;27912;51.828;5.688;2024-02-26T14:32:09;6.00;99.90
42245;DHT22;27912;51.828;5.688;2024-02-26T14:34:35;6.10;99.90
42245;DHT22;27912;51.828;5.688;2024-02-26T14:37:01;6.10;99.90
42245;DHT22;27912;51.828;5.688;2024-02-26T14:39:27;6.10;99.90
42245;DHT22;27912;51.828;5.688;2024-02-26T14:41:53;6.10;99.90
42245;DHT22;27912;51.828;5.688;2024-02-26T14:44:18;6.10;99.90
42245;DHT22;27912;51.828;5.688;2024-02-26T14:46:44;6.10;99.90
42245;DHT22;27912;51.828;5.688;2024-02-26T14:49:09;6.10;99.90
42245;DHT22;27912;51.828;5.688;2024-02-26T14:51:36;6.10;99.90
42245;DHT22;27912;51.828;5.688;2024-02-26T14:54:02;6.20;99.90
42245;DHT22;27912;51.828;5.688;2024-02-26T14:56:28;6.20;99.90
42245;DHT22;27912;51.828;5.688;2024-02-26T14:58:53;6.20;99.90
42245;DHT22;27912;51.828;5.688;2024-02-26T15:01:19;6.20;99.90
42245;DHT22;27912;51.828;5.688;2024-02-26T15:03:45;6.20;99.90
42245;DHT22;27912;51.828;5.688;2024-02-26T15:06:10;6.20;99.90
42245;DHT22;27912;51.828;5.688;2024-02-26T15:08:36;6.30;99.90
42245;DHT22;27912;51.828;5.688;2024-02-26T15:11:02;6.30;99.90
42245;DHT22;27912;51.828;5.688;2024-02-26T15:13:28;6.40;99.90
42245;DHT22;27912;51.828;5.688;2024-02-26T15:15:54;6.40;99.90
42245;DHT22;27912;51.828;5.688;2024-02-26T15:18:20;6.40;99.90
42245;DHT22;27912;51.828;5.688;2024-02-26T15:20:45;6.50;99.90
42245;DHT22;27912;51.828;5.688;2024-02-26T15:23:11;6.50;99.90
42245;DHT22;27912;51.828;5.688;2024-02-26T15:25:38;6.50;99.90
42245;DHT22;27912;51.828;5.688;2024-02-26T15:28:04;6.50;99.90
42245;DHT22;27912;51.828;5.688;2024-02-26T15:30:31;6.50;99.90
42245;DHT22;27912;51.828;5.688;2024-02-26T15:32:58;6.50;99.90
42245;DHT22;27912;51.828;5.688;2024-02-26T15:35:25;6.50;99.90
42245;DHT22;27912;51.828;5.688;2024-02-26T15:37:51;6.40;99.90
42245;DHT22;27912;51.828;5.688;2024-02-26T15:40:18;6.40;99.90
42245;DHT22;27912;51.828;5.688;2024-02-26T15:42:45;6.40;99.90
42245;DHT22;27912;51.828;5.688;2024-02-26T15:45:10;6.40;99.90
42245;DHT22;27912;51.828;5.688;2024-02-26T15:47:36;6.30;99.90